Flight Track Log - Related Links

Times and Time Zones

All times are in EDT time to prevent confusion due to time zone crossing. See the CSN3209 flight status page for this flight to view local times or setup timezone preferences in your user account.

Time Position Orientation Groundspeed Altitude Reporting Facility
EDT Latitude Longitude Course Direction KTS MPH feet Rate Location/Type
01:20AM 23.2001 114.4012 31° Northeast  Level Estimated
01:21AM 23.3074 114.4728 32° Northeast  Level Estimated
01:22AM 23.4146 114.5445 32° Northeast  Level Estimated
01:23AM 23.5219 114.6163 32° Northeast  Level Estimated
01:24AM 23.6290 114.6883 32° Northeast  Level Estimated
01:25AM 23.7362 114.7603 32° Northeast  Level Estimated
01:26AM 23.8433 114.8325 32° Northeast  Level Estimated
01:27AM 23.9503 114.9048 32° Northeast  Level Estimated
01:28AM 24.0574 114.9772 32° Northeast  Level Estimated
01:29AM 24.1644 115.0498 32° Northeast  Level Estimated
01:30AM 24.2714 115.1224 32° Northeast  Level Estimated
01:31AM 24.3783 115.1952 32° Northeast  Level Estimated
01:32AM 24.4852 115.2681 32° Northeast  Level Estimated
01:33AM 24.5920 115.3411 32° Northeast  Level Estimated
01:34AM 24.6989 115.4143 32° Northeast  Level Estimated
01:35AM 24.8057 115.4876 32° Northeast  Level Estimated
01:36AM 24.9124 115.5610 32° Northeast  Level Estimated
01:37AM 25.0191 115.6345 32° Northeast  Level Estimated
01:38AM 25.1258 115.7082 32° Northeast  Level Estimated
01:39AM 25.2325 115.7820 32° Northeast  Level Estimated
01:40AM 25.3391 115.8559 32° Northeast  Level Estimated
01:41AM 25.4457 115.9299 32° Northeast  Level Estimated
01:42AM 25.5522 116.0041 32° Northeast  Level Estimated
01:43AM 25.6587 116.0784 32° Northeast  Level Estimated
01:44AM 25.7652 116.1529 32° Northeast  Level Estimated
01:45AM 25.8716 116.2275 32° Northeast  Level Estimated
01:46AM 25.9780 116.3022 32° Northeast  Level Estimated
01:47AM 26.0843 116.3770 32° Northeast  Level Estimated
01:48AM 26.1906 116.4520 32° Northeast  Level Estimated
01:49AM 26.2969 116.5271 32° Northeast  Level Estimated
01:50AM 26.4031 116.6024 32° Northeast  Level Estimated
01:51AM 26.5093 116.6778 32° Northeast  Level Estimated
01:52AM 26.6155 116.7533 32° Northeast  Level Estimated
01:53AM 26.7216 116.8290 32° Northeast  Level Estimated
01:54AM 26.8277 116.9048 33° Northeast  Level Estimated
01:55AM 26.9337 116.9808 33° Northeast  Level Estimated
01:56AM 27.0397 117.0569 33° Northeast  Level Estimated
01:57AM 27.1456 117.1332 33° Northeast  Level Estimated
01:58AM 27.2515 117.2095 33° Northeast  Level Estimated
01:59AM 27.3574 117.2861 33° Northeast  Level Estimated
02:00AM 27.4632 117.3628 33° Northeast  Level Estimated
02:01AM 27.5690 117.4396 33° Northeast  Level Estimated
02:02AM 27.6747 117.5166 33° Northeast  Level Estimated
02:03AM 27.7804 117.5937 33° Northeast  Level Estimated
02:04AM 27.8861 117.6710 33° Northeast  Level Estimated
02:05AM 27.9917 117.7484 33° Northeast  Level Estimated
02:06AM 28.0973 117.8260 33° Northeast  Level Estimated
02:07AM 28.2028 117.9038 33° Northeast  Level Estimated
02:08AM 28.3083 117.9817 33° Northeast  Level Estimated
02:09AM 28.4137 118.0597 33° Northeast  Level Estimated
02:10AM 28.4961 118.1208 33° Northeast  Level Estimated
02:11AM 28.5801 118.1832 33° Northeast  Level Estimated
02:12AM 28.6640 118.2457 33° Northeast  Level Estimated
02:13AM 28.7479 118.3083 33° Northeast  Level Estimated
02:14AM 28.8317 118.3710 33° Northeast  Level Estimated
02:15AM 28.9156 118.4338 33° Northeast  Level Estimated
02:16AM 28.9993 118.4967 33° Northeast  Level Estimated
02:17AM 29.0831 118.5596 33° Northeast  Level Estimated
02:18AM 29.1668 118.6227 33° Northeast  Level Estimated
02:19AM 29.2506 118.6859 33° Northeast  Level Estimated
02:20AM 29.3342 118.7492 33° Northeast  Level Estimated
02:21AM 29.4179 118.8126 33° Northeast  Level Estimated
02:22AM 29.5015 118.8762 33° Northeast  Level Estimated
02:23AM 29.5851 118.9398 33° Northeast  Level Estimated
02:24AM 29.6686 119.0035 34° Northeast  Level Estimated
02:25AM 29.7522 119.0673 34° Northeast  Level Estimated
02:26AM 29.8357 119.1312 34° Northeast  Level Estimated
02:27AM 29.9191 119.1953 34° Northeast  Level Estimated
02:28AM 30.0026 119.2594 34° Northeast  Level Estimated
02:29AM 30.0860 119.3237 34° Northeast  Level Estimated
02:30AM 30.1693 119.3880 34° Northeast  Level Estimated
02:31AM 30.2527 119.4525 34° Northeast  Level Estimated
02:32AM 30.3360 119.5171 34° Northeast  Level Estimated
02:33AM 30.4193 119.5818 34° Northeast  Level Estimated
02:34AM 30.5025 119.6466 34° Northeast  Level Estimated
02:35AM 30.5857 119.7115 34° Northeast  Level Estimated
02:36AM 30.6689 119.7765 34° Northeast  Level Estimated
02:37AM 30.7521 119.8417 34° Northeast  Level Estimated
02:38AM 30.8352 119.9069 34° Northeast  Level Estimated
02:39AM 30.9183 119.9723 34° Northeast  Level Estimated
02:40AM 31.0013 120.0378 34° Northeast  Level Estimated
02:41AM 31.0843 120.1033 34° Northeast  Level Estimated
02:42AM 31.1673 120.1691 34° Northeast  Level Estimated
02:43AM 31.2503 120.2349 34° Northeast  Level Estimated
02:44AM 31.3332 120.3008 34° Northeast  Level Estimated
02:45AM 31.4161 120.3669 34° Northeast  Level Estimated
02:46AM 31.4944 120.4294 34° Northeast  Level Estimated
02:47AM 31.4944 120.4294 North  Level Estimated
02:48AM 31.4944 120.4294 North  Level Estimated
02:49AM 31.4944 120.4294 North  Level Estimated
02:50AM 31.4944 120.4294 North  Level Estimated
02:51AM 31.4944 120.4294 North  Level Estimated
02:52AM 31.4944 120.4294 North  Level Estimated
02:53AM 31.4944 120.4294 North  Level Estimated
02:54AM 31.4944 120.4294 North  Level Estimated
02:55AM 31.4944 120.4294 North  Level Estimated
02:56AM 31.4944 120.4294 North  Level Estimated
02:57AM 31.4944 120.4294 North  Level Estimated
02:58AM 31.4944 120.4294 North  Level Estimated
02:59AM 31.4944 120.4294 North  Level Estimated
03:00AM 31.4944 120.4294 North  Level Estimated
03:01AM 31.4944 120.4294 North  Level Estimated
03:02AM 31.4944 120.4294 North  Level Estimated
03:03AM 31.4944 120.4294 North  Level Estimated
03:04AM 31.4944 120.4294 North  Level Estimated
03:05AM 31.4944 120.4294 North  Level Estimated
03:06AM 31.4944 120.4294 North  Level Estimated
03:07AM 31.4944 120.4294 North  Level Estimated
03:08AM 31.4944 120.4294 North  Level Estimated
03:09AM 31.4944 120.4294 North  Level Estimated
03:10AM 31.4944 120.4294 North  Level Estimated

Login

Don't have an account? Register now (free) for customized features, flight alerts, and more!